sensor_id;sensor_type;location;lat;lon;timestamp;pressure;altitude;pressure_sealevel;temperature;humidity
59513;BME280;45330;51.634;5.562;2023-11-19T00:01:25;100842.59;;;11.39;100.00
59513;BME280;45330;51.634;5.562;2023-11-19T00:03:51;100847.78;;;11.41;100.00
59513;BME280;45330;51.634;5.562;2023-11-19T00:06:16;100843.44;;;11.40;100.00
59513;BME280;45330;51.634;5.562;2023-11-19T00:08:42;100812.28;;;11.27;100.00
59513;BME280;45330;51.634;5.562;2023-11-19T00:11:09;100825.31;;;11.29;100.00
59513;BME280;45330;51.634;5.562;2023-11-19T00:13:34;100839.03;;;11.43;100.00
59513;BME280;45330;51.634;5.562;2023-11-19T00:15:59;100829.50;;;11.44;100.00
59513;BME280;45330;51.634;5.562;2023-11-19T00:18:25;100813.09;;;11.34;100.00
59513;BME280;45330;51.634;5.562;2023-11-19T00:20:50;100812.19;;;11.40;100.00
59513;BME280;45330;51.634;5.562;2023-11-19T00:23:16;100803.47;;;11.42;100.00
59513;BME280;45330;51.634;5.562;2023-11-19T00:25:41;100776.69;;;11.29;100.00
59513;BME280;45330;51.634;5.562;2023-11-19T00:28:06;100803.41;;;11.47;100.00
59513;BME280;45330;51.634;5.562;2023-11-19T00:30:32;100789.66;;;11.34;100.00
59513;BME280;45330;51.634;5.562;2023-11-19T00:32:57;100799.09;;;11.44;100.00
59513;BME280;45330;51.634;5.562;2023-11-19T00:35:23;100779.13;;;11.45;100.00
59513;BME280;45330;51.634;5.562;2023-11-19T00:37:48;100788.66;;;11.49;100.00
59513;BME280;45330;51.634;5.562;2023-11-19T00:40:14;100769.69;;;11.33;100.00
59513;BME280;45330;51.634;5.562;2023-11-19T00:42:41;100793.00;;;11.47;100.00
59513;BME280;45330;51.634;5.562;2023-11-19T00:45:06;100767.94;;;11.35;100.00
59513;BME280;45330;51.634;5.562;2023-11-19T00:47:35;100775.75;;;11.37;100.00
59513;BME280;45330;51.634;5.562;2023-11-19T00:50:04;100769.66;;;11.36;100.00
59513;BME280;45330;51.634;5.562;2023-11-19T00:52:29;100779.13;;;11.42;100.00
59513;BME280;45330;51.634;5.562;2023-11-19T00:54:55;100790.38;;;11.48;100.00
59513;BME280;45330;51.634;5.562;2023-11-19T00:57:20;100804.28;;;11.49;100.00
59513;BME280;45330;51.634;5.562;2023-11-19T00:59:45;100802.53;;;11.49;100.00
59513;BME280;45330;51.634;5.562;2023-11-19T01:02:12;100802.47;;;11.54;100.00
59513;BME280;45330;51.634;5.562;2023-11-19T01:04:39;100777.47;;;11.39;100.00
59513;BME280;45330;51.634;5.562;2023-11-19T01:07:05;100784.38;;;11.40;100.00
59513;BME280;45330;51.634;5.562;2023-11-19T01:09:32;100795.69;;;11.39;100.00
59513;BME280;45330;51.634;5.562;2023-11-19T01:11:58;100774.84;;;11.38;100.00
59513;BME280;45330;51.634;5.562;2023-11-19T01:14:25;100799.88;;;11.53;100.00
59513;BME280;45330;51.634;5.562;2023-11-19T01:16:51;100760.97;;;11.37;100.00
59513;BME280;45330;51.634;5.562;2023-11-19T01:19:16;100702.25;;;11.05;100.00
59513;BME280;45330;51.634;5.562;2023-11-19T01:21:41;100768.66;;;11.48;100.00
59513;BME280;45330;51.634;5.562;2023-11-19T01:24:07;100758.34;;;11.37;100.00
59513;BME280;45330;51.634;5.562;2023-11-19T01:26:34;100764.34;;;11.45;100.00
59513;BME280;45330;51.634;5.562;2023-11-19T01:29:00;100764.34;;;11.45;100.00
59513;BME280;45330;51.634;5.562;2023-11-19T01:31:26;100747.03;;;11.41;100.00
59513;BME280;45330;51.634;5.562;2023-11-19T01:33:51;100747.91;;;11.40;100.00
59513;BME280;45330;51.634;5.562;2023-11-19T01:36:17;100751.34;;;11.44;100.00
59513;BME280;45330;51.634;5.562;2023-11-19T01:38:42;100743.56;;;11.41;100.00
59513;BME280;45330;51.634;5.562;2023-11-19T01:41:08;100689.34;;;10.96;100.00
59513;BME280;45330;51.634;5.562;2023-11-19T01:43:43;100739.31;;;11.30;100.00
59513;BME280;45330;51.634;5.562;2023-11-19T01:46:08;100767.09;;;11.33;100.00
59513;BME280;45330;51.634;5.562;2023-11-19T01:48:40;100762.75;;;11.32;100.00
59513;BME280;45330;51.634;5.562;2023-11-19T01:51:08;100761.88;;;11.31;100.00
59513;BME280;45330;51.634;5.562;2023-11-19T01:53:34;100759.31;;;11.28;100.00
59513;BME280;45330;51.634;5.562;2023-11-19T01:56:02;100766.22;;;11.32;100.00
59513;BME280;45330;51.634;5.562;2023-11-19T01:58:29;100756.75;;;11.27;100.00
59513;BME280;45330;51.634;5.562;2023-11-19T02:00:55;100730.88;;;11.10;100.00
59513;BME280;45330;51.634;5.562;2023-11-19T02:03:21;100752.47;;;11.20;100.00
59513;BME280;45330;51.634;5.562;2023-11-19T02:05:48;100680.84;;;10.75;100.00
59513;BME280;45330;51.634;5.562;2023-11-19T02:08:14;100746.50;;;11.10;100.00
59513;BME280;45330;51.634;5.562;2023-11-19T02:10:40;100718.88;;;10.92;100.00
59513;BME280;45330;51.634;5.562;2023-11-19T02:13:05;100705.97;;;10.79;100.00
59513;BME280;45330;51.634;5.562;2023-11-19T02:15:32;100727.63;;;10.85;100.00
59513;BME280;45330;51.634;5.562;2023-11-19T02:18:17;100739.75;;;10.86;100.00
59513;BME280;45330;51.634;5.562;2023-11-19T02:20:43;100720.75;;;10.77;100.00
59513;BME280;45330;51.634;5.562;2023-11-19T02:23:08;100724.19;;;10.81;100.00
59513;BME280;45330;51.634;5.562;2023-11-19T02:25:34;100742.31;;;10.92;100.00
59513;BME280;45330;51.634;5.562;2023-11-19T02:28:01;100745.78;;;10.91;100.00
59513;BME280;45330;51.634;5.562;2023-11-19T02:30:27;100742.25;;;10.96;100.00
59513;BME280;45330;51.634;5.562;2023-11-19T02:32:57;100750.94;;;11.00;100.00
59513;BME280;45330;51.634;5.562;2023-11-19T02:35:27;100750.94;;;10.98;100.00
59513;BME280;45330;51.634;5.562;2023-11-19T02:37:54;100735.41;;;10.89;100.00
59513;BME280;45330;51.634;5.562;2023-11-19T02:40:20;100734.44;;;10.98;100.00
59513;BME280;45330;51.634;5.562;2023-11-19T02:42:45;100723.22;;;10.94;100.00
59513;BME280;45330;51.634;5.562;2023-11-19T02:45:10;100763.06;;;10.98;100.00
59513;BME280;45330;51.634;5.562;2023-11-19T02:47:42;100704.22;;;10.85;100.00
59513;BME280;45330;51.634;5.562;2023-11-19T02:50:11;100737.97;;;10.91;100.00
59513;BME280;45330;51.634;5.562;2023-11-19T02:52:42;100725.06;;;10.81;100.00
59513;BME280;45330;51.634;5.562;2023-11-19T02:55:09;100739.72;;;10.92;100.00
59513;BME280;45330;51.634;5.562;2023-11-19T02:57:37;100718.94;;;10.84;100.00
59513;BME280;45330;51.634;5.562;2023-11-19T03:00:04;100734.53;;;10.89;100.00
59513;BME280;45330;51.634;5.562;2023-11-19T03:02:40;100734.59;;;10.79;100.00
59513;BME280;45330;51.634;5.562;2023-11-19T03:05:11;100725.22;;;10.60;100.00
59513;BME280;45330;51.634;5.562;2023-11-19T03:07:37;100739.97;;;10.62;100.00
59513;BME280;45330;51.634;5.562;2023-11-19T03:10:02;100753.03;;;10.55;100.00
59513;BME280;45330;51.634;5.562;2023-11-19T03:12:30;100737.53;;;10.42;100.00
59513;BME280;45330;51.634;5.562;2023-11-19T03:14:56;100750.50;;;10.44;100.00
59513;BME280;45330;51.634;5.562;2023-11-19T03:17:21;100671.91;;;9.94;100.00
59513;BME280;45330;51.634;5.562;2023-11-19T03:19:47;100682.31;;;9.92;100.00
59513;BME280;45330;51.634;5.562;2023-11-19T03:22:13;100750.59;;;10.25;100.00
59513;BME280;45330;51.634;5.562;2023-11-19T03:24:39;100761.06;;;10.16;100.00
59513;BME280;45330;51.634;5.562;2023-11-19T03:27:05;100752.47;;;10.03;100.00
59513;BME280;45330;51.634;5.562;2023-11-19T03:29:30;100757.63;;;10.06;100.00
59513;BME280;45330;51.634;5.562;2023-11-19T03:31:55;100756.81;;;9.98;100.00
59513;BME280;45330;51.634;5.562;2023-11-19T03:34:21;100749.00;;;10.01;100.00
59513;BME280;45330;51.634;5.562;2023-11-19T03:36:47;100757.69;;;9.92;100.00
59513;BME280;45330;51.634;5.562;2023-11-19T03:39:12;100728.34;;;9.69;100.00
59513;BME280;45330;51.634;5.562;2023-11-19T03:41:37;100727.47;;;9.71;100.00
59513;BME280;45330;51.634;5.562;2023-11-19T03:44:03;100748.25;;;9.77;100.00
59513;BME280;45330;51.634;5.562;2023-11-19T03:46:28;100746.53;;;9.70;100.00
59513;BME280;45330;51.634;5.562;2023-11-19T03:48:55;100747.44;;;9.69;100.00
59513;BME280;45330;51.634;5.562;2023-11-19T03:51:20;100735.31;;;9.60;100.00
59513;BME280;45330;51.634;5.562;2023-11-19T03:53:46;100709.41;;;9.43;100.00
59513;BME280;45330;51.634;5.562;2023-11-19T03:56:11;100730.16;;;9.51;100.00
59513;BME280;45330;51.634;5.562;2023-11-19T03:58:37;100690.41;;;9.37;100.00
59513;BME280;45330;51.634;5.562;2023-11-19T04:01:04;100721.50;;;9.46;100.00
59513;BME280;45330;51.634;5.562;2023-11-19T04:03:29;100710.28;;;9.39;100.00
59513;BME280;45330;51.634;5.562;2023-11-19T04:05:55;100704.25;;;9.37;100.00
59513;BME280;45330;51.634;5.562;2023-11-19T04:08:21;100725.81;;;9.52;100.00
59513;BME280;45330;51.634;5.562;2023-11-19T04:10:46;100725.84;;;9.49;100.00
59513;BME280;45330;51.634;5.562;2023-11-19T04:13:12;100722.38;;;9.50;100.00
59513;BME280;45330;51.634;5.562;2023-11-19T04:15:38;100710.31;;;9.30;100.00
59513;BME280;45330;51.634;5.562;2023-11-19T04:18:03;100723.28;;;9.38;100.00
59513;BME280;45330;51.634;5.562;2023-11-19T04:20:28;100729.31;;;9.48;100.00
59513;BME280;45330;51.634;5.562;2023-11-19T04:22:54;100720.69;;;9.41;100.00
59513;BME280;45330;51.634;5.562;2023-11-19T04:25:19;100731.94;;;9.41;100.00
59513;BME280;45330;51.634;5.562;2023-11-19T04:27:46;100716.38;;;9.35;100.00
59513;BME280;45330;51.634;5.562;2023-11-19T04:30:13;100674.91;;;9.01;100.00
59513;BME280;45330;51.634;5.562;2023-11-19T04:32:38;100750.06;;;9.48;100.00
59513;BME280;45330;51.634;5.562;2023-11-19T04:35:04;100749.22;;;9.47;100.00
59513;BME280;45330;51.634;5.562;2023-11-19T04:37:31;100738.84;;;9.38;100.00
59513;BME280;45330;51.634;5.562;2023-11-19T04:39:59;100728.50;;;9.30;100.00
59513;BME280;45330;51.634;5.562;2023-11-19T04:42:25;100718.94;;;9.34;100.00
59513;BME280;45330;51.634;5.562;2023-11-19T04:44:50;100736.25;;;9.46;100.00
59513;BME280;45330;51.634;5.562;2023-11-19T04:47:15;100750.06;;;9.54;100.00
59513;BME280;45330;51.634;5.562;2023-11-19T04:49:41;100727.63;;;9.36;100.00
59513;BME280;45330;51.634;5.562;2023-11-19T04:52:09;100745.75;;;9.45;100.00
59513;BME280;45330;51.634;5.562;2023-11-19T04:54:34;100734.53;;;9.41;100.00
59513;BME280;45330;51.634;5.562;2023-11-19T04:57:00;100735.38;;;9.40;100.00
59513;BME280;45330;51.634;5.562;2023-11-19T04:59:25;100752.69;;;9.46;100.00
59513;BME280;45330;51.634;5.562;2023-11-19T05:01:52;100761.34;;;9.51;100.00
59513;BME280;45330;51.634;5.562;2023-11-19T05:04:18;100759.59;;;9.50;100.00
59513;BME280;45330;51.634;5.562;2023-11-19T05:06:44;100763.06;;;9.54;100.00
59513;BME280;45330;51.634;5.562;2023-11-19T05:09:09;100746.66;;;9.42;100.00
59513;BME280;45330;51.634;5.562;2023-11-19T05:11:35;100752.66;;;9.49;100.00
59513;BME280;45330;51.634;5.562;2023-11-19T05:14:02;100743.16;;;9.51;100.00
59513;BME280;45330;51.634;5.562;2023-11-19T05:16:29;100739.75;;;9.38;100.00
59513;BME280;45330;51.634;5.562;2023-11-19T05:18:54;100766.53;;;9.54;100.00
59513;BME280;45330;51.634;5.562;2023-11-19T05:21:20;100763.06;;;9.46;100.00
59513;BME280;45330;51.634;5.562;2023-11-19T05:23:45;100761.38;;;9.47;100.00
59513;BME280;45330;51.634;5.562;2023-11-19T05:26:21;100755.28;;;9.44;100.00
59513;BME280;45330;51.634;5.562;2023-11-19T05:28:47;100754.44;;;9.41;100.00
59513;BME280;45330;51.634;5.562;2023-11-19T05:31:13;100757.91;;;9.40;100.00
59513;BME280;45330;51.634;5.562;2023-11-19T05:33:38;100759.66;;;9.35;100.00
59513;BME280;45330;51.634;5.562;2023-11-19T05:36:04;100739.78;;;9.17;100.00
59513;BME280;45330;51.634;5.562;2023-11-19T05:38:30;100730.28;;;9.06;100.00
59513;BME280;45330;51.634;5.562;2023-11-19T05:40:55;100738.94;;;9.15;100.00
59513;BME280;45330;51.634;5.562;2023-11-19T05:43:22;100729.41;;;9.03;100.00
59513;BME280;45330;51.634;5.562;2023-11-19T05:45:47;100753.63;;;9.17;100.00
59513;BME280;45330;51.634;5.562;2023-11-19T05:48:13;100782.16;;;9.33;100.00
59513;BME280;45330;51.634;5.562;2023-11-19T05:50:39;100760.56;;;9.20;100.00
59513;BME280;45330;51.634;5.562;2023-11-19T05:53:04;100776.09;;;9.29;100.00
59513;BME280;45330;51.634;5.562;2023-11-19T05:55:35;100777.84;;;9.27;100.00
59513;BME280;45330;51.634;5.562;2023-11-19T05:58:01;100770.06;;;9.29;100.00
59513;BME280;45330;51.634;5.562;2023-11-19T06:00:27;100785.59;;;9.38;100.00
59513;BME280;45330;51.634;5.562;2023-11-19T06:02:52;100762.28;;;9.27;100.00
59513;BME280;45330;51.634;5.562;2023-11-19T06:05:17;100769.16;;;9.28;100.00
59513;BME280;45330;51.634;5.562;2023-11-19T06:07:43;100769.19;;;9.34;100.00
59513;BME280;45330;51.634;5.562;2023-11-19T06:10:09;100763.13;;;9.29;100.00
59513;BME280;45330;51.634;5.562;2023-11-19T06:12:36;100770.03;;;9.35;100.00
59513;BME280;45330;51.634;5.562;2023-11-19T06:15:06;100771.78;;;9.26;100.00
59513;BME280;45330;51.634;5.562;2023-11-19T06:17:33;100775.25;;;9.25;100.00
59513;BME280;45330;51.634;5.562;2023-11-19T06:19:59;100771.78;;;9.23;100.00
59513;BME280;45330;51.634;5.562;2023-11-19T06:22:24;100772.66;;;9.18;100.00
59513;BME280;45330;51.634;5.562;2023-11-19T06:24:49;100751.03;;;9.19;100.00
59513;BME280;45330;51.634;5.562;2023-11-19T06:27:15;100763.13;;;9.26;100.00
59513;BME280;45330;51.634;5.562;2023-11-19T06:29:40;100757.09;;;9.15;100.00
59513;BME280;45330;51.634;5.562;2023-11-19T06:32:06;100747.59;;;9.01;100.00
59513;BME280;45330;51.634;5.562;2023-11-19T06:34:33;100768.34;;;9.14;100.00
59513;BME280;45330;51.634;5.562;2023-11-19T06:36:59;100758.84;;;9.03;100.00
59513;BME280;45330;51.634;5.562;2023-11-19T06:39:24;100752.78;;;9.04;100.00
59513;BME280;45330;51.634;5.562;2023-11-19T06:41:50;100753.66;;;9.06;100.00
59513;BME280;45330;51.634;5.562;2023-11-19T06:44:15;100757.97;;;9.07;100.00
59513;BME280;45330;51.634;5.562;2023-11-19T06:46:40;100744.16;;;8.93;100.00
59513;BME280;45330;51.634;5.562;2023-11-19T06:49:06;100729.44;;;8.80;100.00
59513;BME280;45330;51.634;5.562;2023-11-19T06:51:33;100751.91;;;8.88;100.00
59513;BME280;45330;51.634;5.562;2023-11-19T06:53:59;100774.41;;;8.97;100.00
59513;BME280;45330;51.634;5.562;2023-11-19T06:56:24;100767.50;;;8.90;100.00
59513;BME280;45330;51.634;5.562;2023-11-19T06:58:51;100775.28;;;8.96;100.00
59513;BME280;45330;51.634;5.562;2023-11-19T07:01:17;100784.78;;;8.97;100.00
59513;BME280;45330;51.634;5.562;2023-11-19T07:03:47;100775.28;;;8.81;100.00
59513;BME280;45330;51.634;5.562;2023-11-19T07:06:12;100777.03;;;8.83;100.00
59513;BME280;45330;51.634;5.562;2023-11-19T07:08:40;100792.59;;;8.99;100.00
59513;BME280;45330;51.634;5.562;2023-11-19T07:11:06;100804.69;;;9.00;100.00
59513;BME280;45330;51.634;5.562;2023-11-19T07:13:31;100816.81;;;8.99;100.00
59513;BME280;45330;51.634;5.562;2023-11-19T07:15:57;100817.66;;;9.01;100.00
59513;BME280;45330;51.634;5.562;2023-11-19T07:18:23;100824.59;;;8.98;100.00
59513;BME280;45330;51.634;5.562;2023-11-19T07:20:49;100789.97;;;8.82;100.00
59513;BME280;45330;51.634;5.562;2023-11-19T07:23:14;100818.53;;;9.00;100.00
59513;BME280;45330;51.634;5.562;2023-11-19T07:25:42;100828.03;;;9.01;100.00
59513;BME280;45330;51.634;5.562;2023-11-19T07:28:10;100812.50;;;8.92;100.00
59513;BME280;45330;51.634;5.562;2023-11-19T07:30:35;100804.69;;;8.93;100.00
59513;BME280;45330;51.634;5.562;2023-11-19T07:33:01;100809.03;;;8.98;100.00
59513;BME280;45330;51.634;5.562;2023-11-19T07:35:29;100808.16;;;8.89;100.00
59513;BME280;45330;51.634;5.562;2023-11-19T07:37:56;100819.41;;;8.96;100.00
59513;BME280;45330;51.634;5.562;2023-11-19T07:40:23;100833.25;;;9.06;100.00
59513;BME280;45330;51.634;5.562;2023-11-19T07:42:48;100815.06;;;9.00;100.00
59513;BME280;45330;51.634;5.562;2023-11-19T07:45:13;100847.97;;;9.15;100.00
59513;BME280;45330;51.634;5.562;2023-11-19T07:47:39;100843.63;;;9.17;100.00
59513;BME280;45330;51.634;5.562;2023-11-19T07:50:05;100852.28;;;9.16;100.00
59513;BME280;45330;51.634;5.562;2023-11-19T07:52:30;100842.78;;;9.25;100.00
59513;BME280;45330;51.634;5.562;2023-11-19T07:54:56;100817.69;;;9.07;100.00
59513;BME280;45330;51.634;5.562;2023-11-19T07:57:21;100838.44;;;9.23;100.00
59513;BME280;45330;51.634;5.562;2023-11-19T07:59:49;100818.53;;;9.09;100.00
59513;BME280;45330;51.634;5.562;2023-11-19T08:02:14;100839.28;;;9.25;100.00
59513;BME280;45330;51.634;5.562;2023-11-19T08:04:39;100842.75;;;9.29;100.00
59513;BME280;45330;51.634;5.562;2023-11-19T08:07:10;100849.69;;;9.34;100.00
59513;BME280;45330;51.634;5.562;2023-11-19T08:09:35;100832.38;;;9.27;100.00
59513;BME280;45330;51.634;5.562;2023-11-19T08:12:00;100838.44;;;9.35;100.00
59513;BME280;45330;51.634;5.562;2023-11-19T08:14:26;100855.75;;;9.42;100.00
59513;BME280;45330;51.634;5.562;2023-11-19T08:16:51;100855.72;;;9.52;100.00
59513;BME280;45330;51.634;5.562;2023-11-19T08:19:16;100854.81;;;9.70;100.00
59513;BME280;45330;51.634;5.562;2023-11-19T08:21:42;100856.50;;;9.80;100.00
59513;BME280;45330;51.634;5.562;2023-11-19T08:24:07;100849.56;;;9.85;100.00
59513;BME280;45330;51.634;5.562;2023-11-19T08:26:33;100793.34;;;9.53;100.00
59513;BME280;45330;51.634;5.562;2023-11-19T08:28:58;100829.69;;;9.76;100.00
59513;BME280;45330;51.634;5.562;2023-11-19T08:31:24;100847.84;;;9.84;100.00
59513;BME280;45330;51.634;5.562;2023-11-19T08:33:50;100854.75;;;9.96;100.00
59513;BME280;45330;51.634;5.562;2023-11-19T08:36:16;100858.16;;;10.12;100.00
59513;BME280;45330;51.634;5.562;2023-11-19T08:38:44;100858.94;;;10.31;100.00
59513;BME280;45330;51.634;5.562;2023-11-19T08:41:10;100839.00;;;10.35;100.00
59513;BME280;45330;51.634;5.562;2023-11-19T08:43:35;100833.78;;;10.36;100.00
59513;BME280;45330;51.634;5.562;2023-11-19T08:46:00;100861.50;;;10.46;100.00
59513;BME280;45330;51.634;5.562;2023-11-19T08:48:26;100846.78;;;10.41;100.00
59513;BME280;45330;51.634;5.562;2023-11-19T08:50:51;100858.03;;;10.43;100.00
59513;BME280;45330;51.634;5.562;2023-11-19T08:53:17;100844.19;;;10.30;100.00
59513;BME280;45330;51.634;5.562;2023-11-19T08:55:42;100861.50;;;10.48;100.00
59513;BME280;45330;51.634;5.562;2023-11-19T08:58:08;100869.22;;;10.62;100.00
59513;BME280;45330;51.634;5.562;2023-11-19T09:00:33;100870.94;;;10.66;100.00
59513;BME280;45330;51.634;5.562;2023-11-19T09:02:58;100855.28;;;10.69;100.00
59513;BME280;45330;51.634;5.562;2023-11-19T09:05:24;100861.25;;;10.85;100.00
59513;BME280;45330;51.634;5.562;2023-11-19T09:07:49;100866.41;;;10.93;100.00
59513;BME280;45330;51.634;5.562;2023-11-19T09:10:15;100846.47;;;10.86;100.00
59513;BME280;45330;51.634;5.562;2023-11-19T09:12:41;100843.88;;;10.86;100.00
59513;BME280;45330;51.634;5.562;2023-11-19T09:15:07;100855.91;;;11.02;100.00
59513;BME280;45330;51.634;5.562;2023-11-19T09:17:32;100834.25;;;10.95;100.00
59513;BME280;45330;51.634;5.562;2023-11-19T09:19:57;100855.00;;;11.08;100.00
59513;BME280;45330;51.634;5.562;2023-11-19T09:22:23;100834.28;;;10.97;100.00
59513;BME280;45330;51.634;5.562;2023-11-19T09:24:48;100857.59;;;11.12;100.00
59513;BME280;45330;51.634;5.562;2023-11-19T09:27:14;100829.03;;;11.00;100.00
59513;BME280;45330;51.634;5.562;2023-11-19T09:29:39;100842.03;;;11.02;100.00
59513;BME280;45330;51.634;5.562;2023-11-19T09:32:05;100836.03;;;10.92;100.00
59513;BME280;45330;51.634;5.562;2023-11-19T09:34:31;100831.72;;;10.88;100.00
59513;BME280;45330;51.634;5.562;2023-11-19T09:36:57;100780.78;;;10.53;100.00
59513;BME280;45330;51.634;5.562;2023-11-19T09:39:22;100850.00;;;10.83;100.00
59513;BME280;45330;51.634;5.562;2023-11-19T09:41:47;100826.59;;;10.77;100.00
59513;BME280;45330;51.634;5.562;2023-11-19T09:44:13;100851.69;;;10.89;100.00
59513;BME280;45330;51.634;5.562;2023-11-19T09:46:41;100824.81;;;10.85;100.00
59513;BME280;45330;51.634;5.562;2023-11-19T09:49:08;100851.59;;;11.03;100.00
59513;BME280;45330;51.634;5.562;2023-11-19T09:51:35;100848.97;;;11.04;100.00
59513;BME280;45330;51.634;5.562;2023-11-19T09:54:00;100849.69;;;11.22;100.00
59513;BME280;45330;51.634;5.562;2023-11-19T09:56:28;100843.53;;;11.29;100.00
59513;BME280;45330;51.634;5.562;2023-11-19T09:58:55;100850.31;;;11.48;100.00
59513;BME280;45330;51.634;5.562;2023-11-19T10:01:20;100859.00;;;11.47;100.00
59513;BME280;45330;51.634;5.562;2023-11-19T10:03:47;100849.50;;;11.40;100.00
59513;BME280;45330;51.634;5.562;2023-11-19T10:06:13;100818.44;;;11.20;100.00
59513;BME280;45330;51.634;5.562;2023-11-19T10:08:40;100853.84;;;11.41;100.00
59513;BME280;45330;51.634;5.562;2023-11-19T10:11:07;100854.59;;;11.53;100.00
59513;BME280;45330;51.634;5.562;2023-11-19T10:13:35;100837.16;;;11.61;100.00
59513;BME280;45330;51.634;5.562;2023-11-19T10:16:07;100853.59;;;11.69;100.00
59513;BME280;45330;51.634;5.562;2023-11-19T10:18:33;100832.72;;;11.69;100.00
59513;BME280;45330;51.634;5.562;2023-11-19T10:21:05;100850.00;;;11.78;100.00
59513;BME280;45330;51.634;5.562;2023-11-19T10:23:31;100834.44;;;11.72;100.00
59513;BME280;45330;51.634;5.562;2023-11-19T10:26:12;100846.53;;;11.77;100.00
59513;BME280;45330;51.634;5.562;2023-11-19T10:28:41;100848.25;;;11.81;100.00
59513;BME280;45330;51.634;5.562;2023-11-19T10:31:12;100849.84;;;11.92;100.00
59513;BME280;45330;51.634;5.562;2023-11-19T10:33:38;100855.78;;;12.08;100.00
59513;BME280;45330;51.634;5.562;2023-11-19T10:36:03;100824.53;;;12.03;100.00
59513;BME280;45330;51.634;5.562;2023-11-19T10:38:29;100851.31;;;12.17;100.00
59513;BME280;45330;51.634;5.562;2023-11-19T10:40:56;100838.31;;;12.14;100.00
59513;BME280;45330;51.634;5.562;2023-11-19T10:43:22;100840.22;;;12.00;100.00
59513;BME280;45330;51.634;5.562;2023-11-19T10:45:48;100835.94;;;11.93;100.00
59513;BME280;45330;51.634;5.562;2023-11-19T10:48:14;100844.69;;;11.89;100.00
59513;BME280;45330;51.634;5.562;2023-11-19T10:50:41;100845.59;;;11.84;100.00
59513;BME280;45330;51.634;5.562;2023-11-19T10:53:09;100806.66;;;11.69;100.00
59513;BME280;45330;51.634;5.562;2023-11-19T10:55:36;100835.94;;;11.93;100.00
59513;BME280;45330;51.634;5.562;2023-11-19T10:58:05;100773.66;;;11.68;100.00
59513;BME280;45330;51.634;5.562;2023-11-19T11:00:35;100836.53;;;12.16;100.00
59513;BME280;45330;51.634;5.562;2023-11-19T11:03:22;100817.44;;;12.14;100.00
59513;BME280;45330;51.634;5.562;2023-11-19T11:05:51;100837.28;;;12.28;100.00
59513;BME280;45330;51.634;5.562;2023-11-19T11:08:18;100836.31;;;12.32;100.00
59513;BME280;45330;51.634;5.562;2023-11-19T11:10:54;100835.44;;;12.34;100.00
59513;BME280;45330;51.634;5.562;2023-11-19T11:13:22;100805.97;;;12.25;100.00
59513;BME280;45330;51.634;5.562;2023-11-19T11:15:49;100805.13;;;12.24;100.00
59513;BME280;45330;51.634;5.562;2023-11-19T11:18:16;100818.00;;;12.38;100.00
59513;BME280;45330;51.634;5.562;2023-11-19T11:20:45;100806.84;;;12.27;100.00
59513;BME280;45330;51.634;5.562;2023-11-19T11:23:33;100819.75;;;12.36;100.00
59513;BME280;45330;51.634;5.562;2023-11-19T11:28:53;100812.00;;;12.30;100.00
59513;BME280;45330;51.634;5.562;2023-11-19T11:31:48;100806.81;;;12.28;100.00
59513;BME280;45330;51.634;5.562;2023-11-19T11:37:13;100811.16;;;12.29;100.00
59513;BME280;45330;51.634;5.562;2023-11-19T11:39:41;100781.66;;;12.24;100.00
59513;BME280;45330;51.634;5.562;2023-11-19T11:45:04;100794.72;;;12.23;100.00
59513;BME280;45330;51.634;5.562;2023-11-19T11:50:22;100784.59;;;12.01;100.00
59513;BME280;45330;51.634;5.562;2023-11-19T11:57:59;100803.81;;;12.56;100.00
59513;BME280;45330;51.634;5.562;2023-11-19T12:00:32;100775.22;;;12.48;100.00
59513;BME280;45330;51.634;5.562;2023-11-19T12:03:02;100795.16;;;12.52;100.00
59513;BME280;45330;51.634;5.562;2023-11-19T12:05:29;100785.81;;;12.39;100.00
59513;BME280;45330;51.634;5.562;2023-11-19T12:08:03;100769.22;;;12.42;100.00
59513;BME280;45330;51.634;5.562;2023-11-19T12:10:32;100749.25;;;12.41;100.00
59513;BME280;45330;51.634;5.562;2023-11-19T12:13:01;100775.97;;;12.57;100.00
59513;BME280;45330;51.634;5.562;2023-11-19T12:15:27;100791.81;;;12.43;100.00
59513;BME280;45330;51.634;5.562;2023-11-19T12:17:54;100768.69;;;12.20;100.00
59513;BME280;45330;51.634;5.562;2023-11-19T12:20:24;100773.00;;;12.22;100.00
59513;BME280;45330;51.634;5.562;2023-11-19T12:22:50;100783.25;;;12.34;100.00
59513;BME280;45330;51.634;5.562;2023-11-19T12:25:16;100778.84;;;12.38;100.00
59513;BME280;45330;51.634;5.562;2023-11-19T12:27:47;100785.50;;;12.59;100.00
59513;BME280;45330;51.634;5.562;2023-11-19T12:30:21;100789.84;;;12.60;100.00
59513;BME280;45330;51.634;5.562;2023-11-19T12:32:47;100766.38;;;12.57;100.00
59513;BME280;45330;51.634;5.562;2023-11-19T12:35:13;100760.25;;;12.60;100.00
59513;BME280;45330;51.634;5.562;2023-11-19T12:37:43;100780.84;;;12.80;100.00
59513;BME280;45330;51.634;5.562;2023-11-19T12:40:22;100786.63;;;12.97;100.00
59513;BME280;45330;51.634;5.562;2023-11-19T12:42:52;100782.38;;;12.92;100.00
59513;BME280;45330;51.634;5.562;2023-11-19T12:45:18;100790.31;;;12.85;100.00
59513;BME280;45330;51.634;5.562;2023-11-19T12:47:46;100793.00;;;12.79;100.00
59513;BME280;45330;51.634;5.562;2023-11-19T12:50:16;100773.44;;;12.52;100.00
59513;BME280;45330;51.634;5.562;2023-11-19T12:52:55;100790.69;;;12.61;100.00
59513;BME280;45330;51.634;5.562;2023-11-19T12:55:27;100796.78;;;12.60;100.00
59513;BME280;45330;51.634;5.562;2023-11-19T12:57:53;100788.19;;;12.53;100.00